createdAt,value
2023-08-27T00:01:48.966Z,9.70
2023-08-27T00:04:15.964Z,9.13
2023-08-27T00:06:42.893Z,10.00
2023-08-27T00:09:14.284Z,9.82
2023-08-27T00:11:41.258Z,9.65
2023-08-27T00:14:10.595Z,8.43
2023-08-27T00:16:40.277Z,9.73
2023-08-27T00:19:09.947Z,8.73
2023-08-27T00:21:39.219Z,8.50
2023-08-27T00:24:09.173Z,8.85
2023-08-27T00:26:36.055Z,9.23
2023-08-27T00:29:03.007Z,8.90
2023-08-27T00:31:33.922Z,9.05
2023-08-27T00:34:03.215Z,8.30
2023-08-27T00:36:32.275Z,8.90
2023-08-27T00:38:59.101Z,8.50
2023-08-27T00:41:28.376Z,8.63
2023-08-27T00:44:02.111Z,7.60
2023-08-27T00:46:31.438Z,7.53
2023-08-27T00:49:00.520Z,8.15
2023-08-27T00:51:27.364Z,7.20
2023-08-27T00:53:54.189Z,7.82
2023-08-27T00:56:20.963Z,7.80
2023-08-27T00:58:47.819Z,7.72
2023-08-27T01:01:15.436Z,7.93
2023-08-27T01:03:42.314Z,6.97
2023-08-27T01:06:09.099Z,6.00
2023-08-27T01:08:55.539Z,6.50
2023-08-27T01:11:40.471Z,5.93
2023-08-27T01:14:07.981Z,5.97
2023-08-27T01:16:37.688Z,5.45
2023-08-27T01:19:15.682Z,5.63
2023-08-27T01:21:47.277Z,5.50
2023-08-27T01:24:14.158Z,5.93
2023-08-27T01:26:47.699Z,6.07
2023-08-27T01:29:25.437Z,5.53
2023-08-27T01:32:09.721Z,5.28
2023-08-27T01:34:36.646Z,5.07
2023-08-27T01:37:04.922Z,4.95
2023-08-27T01:39:31.928Z,4.88
2023-08-27T01:41:58.773Z,4.88
2023-08-27T01:44:25.651Z,4.80
2023-08-27T01:46:54.963Z,4.60
2023-08-27T01:49:21.970Z,5.07
2023-08-27T01:51:49.086Z,4.60
2023-08-27T01:54:17.681Z,4.78
2023-08-27T01:56:44.629Z,5.00
2023-08-27T01:59:11.585Z,5.18
2023-08-27T02:01:38.453Z,5.13
2023-08-27T02:04:07.922Z,5.15
2023-08-27T02:06:37.193Z,5.05
2023-08-27T02:09:07.391Z,5.50
2023-08-27T02:11:34.203Z,4.82
2023-08-27T02:14:01.015Z,5.20
2023-08-27T02:16:30.059Z,5.32
2023-08-27T02:18:57.000Z,4.82
2023-08-27T02:21:28.630Z,5.03
2023-08-27T02:24:00.183Z,5.35
2023-08-27T02:26:31.853Z,5.18
2023-08-27T02:29:02.088Z,5.05
2023-08-27T02:31:31.116Z,5.22
2023-08-27T02:34:00.427Z,5.43
2023-08-27T02:36:29.396Z,5.32
2023-08-27T02:38:58.474Z,5.05
2023-08-27T02:41:25.348Z,5.07
2023-08-27T02:43:54.769Z,4.82
2023-08-27T02:46:21.591Z,4.47
2023-08-27T02:48:50.817Z,4.80
2023-08-27T02:51:17.684Z,5.35
2023-08-27T02:53:47.035Z,5.88
2023-08-27T02:56:13.857Z,6.03
2023-08-27T02:58:40.676Z,5.63
2023-08-27T03:01:11.144Z,5.68
2023-08-27T03:03:38.068Z,6.22
2023-08-27T03:06:04.931Z,6.45
2023-08-27T03:08:36.697Z,6.03
2023-08-27T03:11:03.809Z,5.65
2023-08-27T03:13:31.013Z,6.50
2023-08-27T03:16:00.231Z,5.95
2023-08-27T03:18:31.379Z,5.90
2023-08-27T03:20:58.345Z,6.30
2023-08-27T03:23:25.185Z,5.95
2023-08-27T03:25:56.707Z,5.97
2023-08-27T03:28:25.943Z,6.10
2023-08-27T03:30:52.743Z,6.90
2023-08-27T03:33:19.623Z,6.05
2023-08-27T03:35:57.150Z,6.22
2023-08-27T03:38:26.685Z,6.40
2023-08-27T03:40:53.721Z,6.88
2023-08-27T03:43:22.901Z,6.15
2023-08-27T03:45:52.796Z,6.53
2023-08-27T03:48:19.720Z,6.47
2023-08-27T03:50:49.139Z,6.93
2023-08-27T03:53:18.795Z,6.30
2023-08-27T03:55:45.660Z,6.75
2023-08-27T03:58:13.068Z,5.70
2023-08-27T04:00:39.882Z,7.45
2023-08-27T04:03:07.003Z,6.97
2023-08-27T04:05:39.726Z,7.43
2023-08-27T04:08:07.594Z,7.30
2023-08-27T04:10:34.475Z,7.22
2023-08-27T04:13:03.871Z,7.03
2023-08-27T04:15:35.455Z,7.20
2023-08-27T04:18:02.382Z,6.70
2023-08-27T04:20:31.531Z,6.93
2023-08-27T04:23:00.751Z,6.63
2023-08-27T04:25:32.612Z,6.80
2023-08-27T04:27:59.404Z,7.35
2023-08-27T04:30:28.720Z,7.10
2023-08-27T04:32:58.214Z,7.00
2023-08-27T04:35:30.023Z,6.80
2023-08-27T04:37:59.148Z,7.63
2023-08-27T04:40:26.040Z,6.90
2023-08-27T04:42:52.858Z,7.75
2023-08-27T04:45:19.724Z,7.72
2023-08-27T04:47:49.204Z,7.65
2023-08-27T04:50:16.170Z,7.00
2023-08-27T04:52:43.123Z,7.18
2023-08-27T04:55:10.866Z,7.25
2023-08-27T04:57:40.337Z,7.00
2023-08-27T05:00:09.659Z,7.30
2023-08-27T05:02:40.331Z,6.90
2023-08-27T05:05:07.576Z,7.25
2023-08-27T05:07:36.438Z,7.75
2023-08-27T05:10:03.578Z,7.53
2023-08-27T05:12:30.384Z,6.93
2023-08-27T05:14:57.232Z,8.18
2023-08-27T05:17:26.827Z,7.75
2023-08-27T05:19:53.645Z,7.93
2023-08-27T05:22:21.141Z,7.30
2023-08-27T05:24:48.012Z,7.28
2023-08-27T05:27:17.075Z,7.45
2023-08-27T05:29:43.878Z,7.75
2023-08-27T05:32:12.940Z,7.65
2023-08-27T05:34:39.794Z,7.30
2023-08-27T05:37:06.604Z,7.40
2023-08-27T05:39:38.159Z,8.07
2023-08-27T05:42:05.223Z,7.72
2023-08-27T05:44:32.048Z,7.18
2023-08-27T05:46:58.936Z,7.60
2023-08-27T05:49:25.844Z,8.05
2023-08-27T05:51:54.905Z,7.90
2023-08-27T05:54:24.056Z,8.45
2023-08-27T05:56:51.096Z,8.60
2023-08-27T05:59:18.019Z,7.70
2023-08-27T06:01:45.082Z,7.95
2023-08-27T06:04:11.925Z,8.73
2023-08-27T06:06:42.456Z,8.02
2023-08-27T06:09:09.245Z,8.18
2023-08-27T06:11:36.130Z,8.73
2023-08-27T06:14:03.083Z,8.30
2023-08-27T06:16:30.185Z,8.77
2023-08-27T06:18:56.956Z,8.70
2023-08-27T06:21:28.864Z,8.73
2023-08-27T06:24:00.344Z,8.32
2023-08-27T06:26:30.105Z,8.32
2023-08-27T06:28:59.086Z,8.52
2023-08-27T06:31:26.218Z,8.20
2023-08-27T06:33:55.341Z,8.10
2023-08-27T06:36:22.392Z,8.18
2023-08-27T06:38:49.233Z,7.35
2023-08-27T06:41:16.105Z,7.22
2023-08-27T06:43:45.452Z,7.80
2023-08-27T06:46:13.849Z,7.13
2023-08-27T06:48:40.884Z,6.80
2023-08-27T06:51:07.695Z,6.88
2023-08-27T06:53:34.547Z,7.40
2023-08-27T06:56:02.079Z,6.95
2023-08-27T06:58:30.626Z,6.20
2023-08-27T07:00:57.876Z,6.50
2023-08-27T07:03:29.402Z,6.88
2023-08-27T07:05:56.255Z,6.28
2023-08-27T07:08:25.569Z,6.60
2023-08-27T07:10:53.203Z,5.30
2023-08-27T07:13:20.008Z,5.20
2023-08-27T07:15:48.541Z,5.50
2023-08-27T07:18:21.335Z,5.43
2023-08-27T07:20:53.031Z,5.05
2023-08-27T07:23:25.274Z,4.80
2023-08-27T07:25:52.126Z,4.72
2023-08-27T07:28:19.230Z,4.78
2023-08-27T07:30:48.868Z,4.88
2023-08-27T07:33:18.490Z,5.15
2023-08-27T07:35:45.311Z,4.95
2023-08-27T07:38:15.408Z,5.25
2023-08-27T07:40:44.727Z,5.10
2023-08-27T07:43:14.070Z,5.03
2023-08-27T07:45:43.527Z,5.18
2023-08-27T07:48:13.065Z,5.30
2023-08-27T07:50:40.374Z,5.65
2023-08-27T07:53:10.104Z,6.03
2023-08-27T07:55:39.514Z,5.18
2023-08-27T07:58:06.502Z,5.88
2023-08-27T08:00:35.552Z,5.55
2023-08-27T08:03:03.204Z,5.35
2023-08-27T08:05:32.869Z,5.60
2023-08-27T08:07:59.969Z,5.82
2023-08-27T08:10:27.227Z,5.25
2023-08-27T08:12:54.181Z,5.93
2023-08-27T08:15:20.998Z,5.22
2023-08-27T08:17:47.979Z,5.30
2023-08-27T08:20:15.133Z,5.65
2023-08-27T08:22:42.133Z,6.82
2023-08-27T08:25:11.629Z,6.80
2023-08-27T08:27:38.430Z,5.70
2023-08-27T08:30:08.507Z,5.70
2023-08-27T08:32:37.544Z,6.38
2023-08-27T08:35:07.254Z,5.28
2023-08-27T08:37:34.124Z,5.40
2023-08-27T08:40:00.966Z,5.57
2023-08-27T08:42:33.183Z,5.13
2023-08-27T08:45:10.917Z,5.22
2023-08-27T08:47:38.069Z,5.75
2023-08-27T08:50:07.228Z,4.70
2023-08-27T08:52:40.235Z,5.72
2023-08-27T08:55:12.924Z,5.30
2023-08-27T08:57:41.683Z,4.63
2023-08-27T09:00:09.371Z,4.88
2023-08-27T09:02:39.547Z,5.00
2023-08-27T09:05:12.736Z,5.03
2023-08-27T09:07:42.377Z,5.22
2023-08-27T09:10:13.290Z,5.50
2023-08-27T09:12:42.869Z,4.85
2023-08-27T09:15:12.845Z,4.70
2023-08-27T09:17:39.953Z,4.72
2023-08-27T09:20:08.580Z,5.15
2023-08-27T09:22:37.625Z,4.80
2023-08-27T09:25:07.190Z,4.78
2023-08-27T09:27:34.276Z,5.10
2023-08-27T09:30:01.982Z,4.85
2023-08-27T09:32:29.315Z,4.95
2023-08-27T09:35:02.698Z,4.72
2023-08-27T09:37:39.911Z,5.68
2023-08-27T09:40:09.958Z,4.38
2023-08-27T09:42:40.132Z,4.68
2023-08-27T09:45:07.627Z,4.97
2023-08-27T09:47:37.418Z,5.03
2023-08-27T09:50:05.527Z,4.55
2023-08-27T09:52:34.578Z,5.20
2023-08-27T09:55:01.847Z,4.97
2023-08-27T09:57:30.374Z,4.78
2023-08-27T09:59:59.481Z,5.13
2023-08-27T10:02:26.322Z,4.75
2023-08-27T10:04:57.502Z,5.38
2023-08-27T10:07:26.696Z,4.38
2023-08-27T10:09:54.934Z,4.72
2023-08-27T10:12:22.704Z,4.63
2023-08-27T10:14:49.685Z,4.60
2023-08-27T10:17:16.969Z,4.72
2023-08-27T10:19:43.972Z,4.53
2023-08-27T10:22:17.983Z,4.50
2023-08-27T10:24:44.897Z,4.35
2023-08-27T10:27:11.791Z,4.38
2023-08-27T10:29:41.674Z,4.32
2023-08-27T10:32:08.716Z,4.22
2023-08-27T10:34:36.226Z,4.00
2023-08-27T10:37:07.855Z,4.78
2023-08-27T10:39:35.265Z,4.43
2023-08-27T10:42:04.185Z,4.10
2023-08-27T10:44:30.987Z,4.03
2023-08-27T10:47:19.041Z,3.63
2023-08-27T10:49:46.929Z,4.28
2023-08-27T10:52:30.563Z,3.95
2023-08-27T10:55:01.125Z,7.38
2023-08-27T10:57:28.208Z,5.63
2023-08-27T11:00:14.246Z,4.03
2023-08-27T11:03:02.671Z,4.35
2023-08-27T11:05:30.487Z,4.22
2023-08-27T11:08:04.072Z,4.30
2023-08-27T11:10:32.298Z,4.30
2023-08-27T11:12:59.635Z,4.75
2023-08-27T11:15:33.031Z,4.43
2023-08-27T11:18:01.373Z,4.40
2023-08-27T11:20:31.349Z,3.95
2023-08-27T11:22:59.655Z,3.90
2023-08-27T11:25:35.162Z,4.35
2023-08-27T11:28:05.514Z,3.90
2023-08-27T11:30:34.609Z,3.72
2023-08-27T11:33:06.865Z,3.70
2023-08-27T11:35:33.752Z,4.05
2023-08-27T11:38:00.853Z,4.07
2023-08-27T11:40:28.280Z,4.13
2023-08-27T11:42:56.570Z,4.40
2023-08-27T11:45:38.981Z,4.55
2023-08-27T11:48:13.545Z,4.22
2023-08-27T11:50:41.467Z,4.90
2023-08-27T11:53:08.345Z,4.35
2023-08-27T11:55:35.441Z,4.40
2023-08-27T11:58:02.858Z,3.97
2023-08-27T12:00:32.673Z,4.57
2023-08-27T12:03:05.258Z,4.90
2023-08-27T12:05:34.579Z,5.13
2023-08-27T12:08:09.185Z,4.75
2023-08-27T12:10:45.851Z,4.60
2023-08-27T12:13:12.808Z,5.00
2023-08-27T12:15:40.226Z,4.97
2023-08-27T12:18:12.745Z,5.10
2023-08-27T12:20:42.259Z,5.28
2023-08-27T12:23:15.774Z,5.40
2023-08-27T12:25:54.002Z,5.40
2023-08-27T12:28:25.507Z,5.70
2023-08-27T12:30:56.233Z,5.72
2023-08-27T12:33:37.542Z,6.22
2023-08-27T12:36:08.460Z,5.63
2023-08-27T12:38:35.833Z,5.97
2023-08-27T12:41:02.679Z,5.90
2023-08-27T12:43:32.027Z,6.20
2023-08-27T12:45:59.063Z,6.10
2023-08-27T12:48:30.572Z,6.13
2023-08-27T12:50:59.531Z,6.07
2023-08-27T12:53:28.492Z,6.15
2023-08-27T12:55:55.330Z,6.15
2023-08-27T12:58:22.271Z,6.60
2023-08-27T13:00:51.332Z,6.55
2023-08-27T13:03:18.274Z,6.25
2023-08-27T13:05:49.737Z,6.00
2023-08-27T13:08:19.048Z,6.40
2023-08-27T13:10:45.944Z,6.65
2023-08-27T13:13:12.896Z,7.00
2023-08-27T13:15:41.906Z,6.75
2023-08-27T13:18:11.111Z,6.47
2023-08-27T13:20:37.999Z,8.27
2023-08-27T13:23:04.967Z,7.78
2023-08-27T13:25:31.914Z,8.05
2023-08-27T13:28:04.063Z,8.75
2023-08-27T13:30:33.504Z,8.32
2023-08-27T13:33:02.466Z,9.15
2023-08-27T13:35:31.797Z,9.82
2023-08-27T13:38:00.651Z,10.25
2023-08-27T13:40:29.197Z,10.35
2023-08-27T13:42:56.052Z,10.07
2023-08-27T13:45:25.528Z,10.02
2023-08-27T13:47:52.576Z,10.50
2023-08-27T13:50:19.988Z,10.38
2023-08-27T13:52:47.232Z,11.07
2023-08-27T13:55:19.152Z,11.02
2023-08-27T13:57:48.586Z,10.40
2023-08-27T14:00:18.551Z,9.73
2023-08-27T14:02:45.657Z,10.85
2023-08-27T14:05:12.646Z,10.27
2023-08-27T14:07:39.542Z,10.25
2023-08-27T14:10:06.967Z,9.93
2023-08-27T14:12:35.985Z,10.00
2023-08-27T14:15:05.019Z,10.43
2023-08-27T14:17:31.870Z,10.55
2023-08-27T14:19:58.772Z,10.55
2023-08-27T14:22:28.668Z,10.23
2023-08-27T14:24:55.708Z,11.10
2023-08-27T14:27:22.524Z,10.68
2023-08-27T14:29:49.458Z,10.48
2023-08-27T14:32:16.455Z,10.40
2023-08-27T14:34:43.376Z,10.93
2023-08-27T14:37:10.270Z,10.07
2023-08-27T14:39:39.172Z,10.93
2023-08-27T14:42:07.109Z,9.98
2023-08-27T14:44:33.951Z,10.50
2023-08-27T14:47:00.903Z,10.43
2023-08-27T14:49:30.017Z,11.00
2023-08-27T14:51:57.561Z,10.60
2023-08-27T14:54:24.566Z,11.45
2023-08-27T14:56:52.216Z,12.20
2023-08-27T14:59:34.903Z,11.90
2023-08-27T15:02:11.669Z,12.45
2023-08-27T15:04:42.152Z,12.85
2023-08-27T15:07:11.706Z,13.25
2023-08-27T15:09:38.569Z,12.70
2023-08-27T15:12:09.898Z,12.48
2023-08-27T15:14:38.979Z,12.88
2023-08-27T15:17:08.146Z,12.45
2023-08-27T15:19:35.009Z,11.90
2023-08-27T15:22:04.040Z,12.23
2023-08-27T15:24:30.970Z,12.40
2023-08-27T15:26:57.870Z,11.38
2023-08-27T15:29:26.511Z,12.02
2023-08-27T15:31:55.862Z,12.13
2023-08-27T15:34:22.733Z,12.20
2023-08-27T15:36:50.470Z,12.25
2023-08-27T15:39:21.060Z,12.02
2023-08-27T15:41:47.943Z,12.60
2023-08-27T15:44:14.792Z,11.30
2023-08-27T15:46:44.178Z,12.23
2023-08-27T15:49:11.262Z,11.35
2023-08-27T15:51:38.179Z,9.82
2023-08-27T15:54:07.630Z,8.80
2023-08-27T15:56:34.545Z,8.27
2023-08-27T15:59:01.459Z,7.70
2023-08-27T16:01:28.250Z,7.65
2023-08-27T16:03:57.643Z,7.22
2023-08-27T16:06:29.256Z,6.85
2023-08-27T16:08:56.201Z,6.63
2023-08-27T16:11:26.455Z,6.70
2023-08-27T16:13:53.282Z,6.63
2023-08-27T16:16:24.927Z,6.50
2023-08-27T16:18:51.858Z,6.97
2023-08-27T16:21:18.767Z,6.20
2023-08-27T16:23:46.853Z,6.32
2023-08-27T16:26:13.812Z,6.40
2023-08-27T16:28:42.854Z,6.65
2023-08-27T16:31:18.310Z,6.50
2023-08-27T16:33:45.664Z,5.10
2023-08-27T16:36:16.775Z,4.90
2023-08-27T16:38:44.051Z,5.45
2023-08-27T16:41:14.378Z,4.50
2023-08-27T16:43:41.238Z,4.45
2023-08-27T16:46:08.470Z,3.80
2023-08-27T16:48:35.380Z,3.75
2023-08-27T16:51:11.254Z,3.10
2023-08-27T16:53:38.349Z,3.90
2023-08-27T16:56:08.100Z,3.53
2023-08-27T16:58:35.206Z,3.40
2023-08-27T17:01:04.265Z,2.95
2023-08-27T17:03:36.332Z,3.58
2023-08-27T17:06:03.334Z,3.00
2023-08-27T17:08:30.260Z,3.50
2023-08-27T17:10:57.070Z,3.30
2023-08-27T17:13:26.115Z,3.22
2023-08-27T17:15:55.116Z,3.10
2023-08-27T17:18:24.434Z,3.42
2023-08-27T17:20:51.367Z,3.58
2023-08-27T17:23:18.489Z,3.55
2023-08-27T17:25:45.424Z,3.42
2023-08-27T17:28:12.268Z,3.20
2023-08-27T17:30:41.978Z,2.83
2023-08-27T17:33:12.338Z,2.97
2023-08-27T17:35:42.926Z,3.53
2023-08-27T17:38:12.667Z,3.60
2023-08-27T17:40:39.571Z,2.90
2023-08-27T17:43:06.480Z,2.85
2023-08-27T17:45:34.695Z,3.38
2023-08-27T17:48:07.332Z,3.30
2023-08-27T17:50:39.737Z,3.55
2023-08-27T17:53:07.295Z,3.20
2023-08-27T17:55:37.736Z,3.33
2023-08-27T17:58:20.665Z,2.88
2023-08-27T18:00:47.558Z,3.00
2023-08-27T18:03:19.359Z,2.92
2023-08-27T18:05:49.593Z,3.13
2023-08-27T18:08:22.707Z,3.50
2023-08-27T18:10:51.734Z,3.42
2023-08-27T18:13:20.906Z,3.30
2023-08-27T18:15:51.750Z,2.90
2023-08-27T18:18:21.266Z,3.00
2023-08-27T18:20:48.158Z,2.75
2023-08-27T18:23:19.780Z,2.90
2023-08-27T18:25:48.861Z,3.20
2023-08-27T18:28:17.909Z,2.95
2023-08-27T18:30:44.786Z,3.28
2023-08-27T18:33:11.633Z,3.20
2023-08-27T18:35:40.987Z,2.90
2023-08-27T18:38:08.111Z,3.58
2023-08-27T18:40:35.068Z,3.47
2023-08-27T18:43:04.146Z,3.20
2023-08-27T18:45:31.854Z,2.88
2023-08-27T18:47:58.775Z,3.30
2023-08-27T18:50:26.805Z,3.42
2023-08-27T18:52:54.121Z,3.35
2023-08-27T18:55:20.976Z,3.25
2023-08-27T18:57:50.528Z,3.50
2023-08-27T19:00:19.629Z,3.90
2023-08-27T19:02:49.544Z,3.58
2023-08-27T19:05:17.707Z,3.85
2023-08-27T19:07:47.435Z,3.97
2023-08-27T19:10:16.977Z,3.78
2023-08-27T19:12:46.150Z,3.50
2023-08-27T19:15:15.621Z,3.85
2023-08-27T19:17:47.148Z,3.97
2023-08-27T19:20:18.674Z,3.67
2023-08-27T19:22:47.611Z,3.85
2023-08-27T19:25:23.285Z,3.70
2023-08-27T19:27:52.505Z,4.07
2023-08-27T19:30:29.876Z,4.20
2023-08-27T19:32:59.576Z,4.00
2023-08-27T19:35:26.416Z,4.32
2023-08-27T19:37:53.270Z,4.20
2023-08-27T19:40:22.896Z,4.40
2023-08-27T19:42:52.304Z,4.28
2023-08-27T19:45:21.716Z,3.83
2023-08-27T19:47:48.568Z,3.90
2023-08-27T19:50:15.756Z,4.50
2023-08-27T19:52:42.642Z,4.35
2023-08-27T19:55:12.243Z,4.55
2023-08-27T19:57:39.523Z,5.30
2023-08-27T20:00:07.524Z,4.53
2023-08-27T20:02:34.823Z,4.80
2023-08-27T20:05:04.117Z,4.30
2023-08-27T20:07:33.159Z,4.80
2023-08-27T20:10:00.073Z,4.55
2023-08-27T20:12:29.455Z,4.60
2023-08-27T20:14:58.824Z,4.78
2023-08-27T20:17:27.920Z,4.78
2023-08-27T20:19:57.053Z,4.72
2023-08-27T20:22:28.312Z,4.35
2023-08-27T20:24:55.249Z,4.32
2023-08-27T20:27:22.096Z,4.75
2023-08-27T20:29:51.390Z,4.60
2023-08-27T20:32:20.835Z,4.68
2023-08-27T20:34:47.681Z,4.40
2023-08-27T20:37:16.975Z,4.57
2023-08-27T20:39:48.026Z,4.60
2023-08-27T20:42:17.225Z,4.80
2023-08-27T20:44:44.092Z,4.88
2023-08-27T20:47:11.001Z,5.00
2023-08-27T20:49:37.822Z,4.80
2023-08-27T20:52:05.037Z,4.68
2023-08-27T20:54:34.341Z,4.60
2023-08-27T20:57:01.240Z,4.90
2023-08-27T20:59:28.161Z,4.63
2023-08-27T21:01:56.572Z,4.50
2023-08-27T21:04:25.556Z,4.95
2023-08-27T21:06:52.471Z,5.03
2023-08-27T21:09:19.440Z,5.20
2023-08-27T21:11:46.433Z,5.35
2023-08-27T21:14:13.292Z,5.63
2023-08-27T21:16:40.102Z,5.38
2023-08-27T21:19:11.588Z,5.13
2023-08-27T21:21:38.492Z,6.00
2023-08-27T21:24:10.810Z,5.88
2023-08-27T21:26:37.712Z,5.78
2023-08-27T21:29:05.027Z,6.28
2023-08-27T21:31:48.319Z,5.72
2023-08-27T21:34:20.355Z,6.50
2023-08-27T21:36:47.238Z,6.63
2023-08-27T21:39:18.548Z,6.47
2023-08-27T21:41:45.652Z,6.72
2023-08-27T21:44:15.100Z,6.47
2023-08-27T21:46:41.946Z,7.00
2023-08-27T21:49:12.813Z,6.88
2023-08-27T21:51:42.196Z,6.93
2023-08-27T21:54:09.037Z,8.00
2023-08-27T21:56:35.877Z,8.32
2023-08-27T21:59:02.784Z,8.45
2023-08-27T22:01:32.500Z,7.45
2023-08-27T22:04:01.728Z,8.05
2023-08-27T22:06:28.847Z,8.38
2023-08-27T22:08:57.999Z,8.43
2023-08-27T22:11:28.339Z,8.95
2023-08-27T22:13:55.222Z,8.98
2023-08-27T22:16:22.078Z,8.38
2023-08-27T22:18:51.226Z,8.40
2023-08-27T22:21:20.444Z,8.00
2023-08-27T22:23:49.888Z,8.73
2023-08-27T22:26:21.398Z,8.32
2023-08-27T22:28:50.418Z,8.95
2023-08-27T22:31:17.549Z,8.13
2023-08-27T22:33:44.632Z,8.93
2023-08-27T22:36:11.461Z,8.40
2023-08-27T22:38:40.740Z,9.55
2023-08-27T22:41:07.650Z,9.25
2023-08-27T22:43:37.089Z,9.23
2023-08-27T22:46:04.054Z,9.30
2023-08-27T22:48:31.684Z,9.60
2023-08-27T22:51:00.706Z,9.77
2023-08-27T22:53:27.607Z,10.70
2023-08-27T22:55:54.486Z,10.52
2023-08-27T22:58:21.530Z,10.10
2023-08-27T23:00:48.435Z,10.30
2023-08-27T23:03:17.523Z,10.10
2023-08-27T23:05:44.412Z,10.23
2023-08-27T23:08:11.340Z,10.43
2023-08-27T23:10:38.253Z,10.38
2023-08-27T23:13:07.463Z,10.15
2023-08-27T23:15:36.621Z,10.73
2023-08-27T23:18:06.137Z,10.90
2023-08-27T23:20:33.089Z,11.18
2023-08-27T23:23:00.388Z,10.65
2023-08-27T23:25:30.804Z,11.25
2023-08-27T23:28:02.376Z,10.23
2023-08-27T23:30:29.439Z,10.80
2023-08-27T23:32:58.523Z,10.43
2023-08-27T23:35:25.446Z,10.38
2023-08-27T23:37:57.011Z,11.05
2023-08-27T23:40:23.968Z,10.23
2023-08-27T23:42:53.194Z,11.15
2023-08-27T23:45:20.089Z,11.00
2023-08-27T23:47:46.978Z,11.20
2023-08-27T23:50:14.004Z,13.50
2023-08-27T23:52:40.908Z,12.82
2023-08-27T23:55:08.289Z,12.82
2023-08-27T23:57:35.487Z,13.50
